• Join FlightAware (Why Join?)
  • Login
  • US Flag 
11:15PM EDT


 

Airport Tracker/Info


-or-


 

Live Flight TrackerFlight Track Log ✈ N618JB ✈ 12-Apr-2013 ✈ TIST / STT - KBOS

Flight Track Log - Related Links

Times and Time Zones

All times are in EDT time to prevent confusion due to time zone crossing. See the N618JB flight status page for this flight to view local times or setup timezone preferences in your user account.

Time Position Orientation Groundspeed Altitude Reporting Facility
EDT Latitude Longitude Course Direction KTS MPH feet Rate Location/Type
02:59PM 18.3333 -64.9500 354° North 140 161 1,600  Level San Juan Center
03:00PM 18.2833 -64.9500 180° South 210 242 2,800 2,100 Climbing San Juan Center
03:01PM 18.2833 -65.0333 270° West 280 322 5,900 3,120 Climbing San Juan Center
03:02PM 18.6633 -65.0073 354° North  Level FlightAware Approximate
03:02PM 18.3500 -65.0667 335° Northwest 290 334 9,100  Level San Juan Center
03:03PM 18.7720 -65.0186 354° North  Level FlightAware Approximate
03:03PM 18.4333 -65.1167 330° Northwest 320 368 10,800  Level San Juan Center
03:04PM 18.8806 -65.0300 354° North  Level FlightAware Approximate
03:04PM 18.5167 -65.1500 339° North 360 414 12,800  Level San Juan Center
03:05PM 18.9893 -65.0414 354° North  Level FlightAware Approximate
03:05PM 18.6167 -65.2000 335° Northwest 370 426 15,400  Level San Juan Center
03:06PM 18.7000 -65.2500 330° Northwest 370 426 17,400 2,100 Climbing San Juan Center
03:07PM 18.8000 -65.3000 335° Northwest 390 449 19,700 2,220 Climbing San Juan Center
03:08PM 18.9000 -65.3500 335° Northwest 390 449 21,900 1,980 Climbing San Juan Center
03:09PM 19.0000 -65.4000 335° Northwest 390 449 23,700 1,680 Climbing San Juan Center
03:10PM 19.1000 -65.4500 335° Northwest 380 437 25,300 1,200 Climbing San Juan Center
03:11PM 19.2000 -65.5000 335° Northwest 380 437 26,200 1,020 Climbing San Juan Center
03:12PM 19.3000 -65.5500 335° Northwest 410 472 27,400 1,140 Climbing San Juan Center
03:13PM 19.4000 -65.6000 335° Northwest 410 472 28,600 1,140 Climbing San Juan Center
03:14PM 19.5000 -65.6500 335° Northwest 420 483 29,700 1,200 Climbing San Juan Center
03:15PM 19.6167 -65.7000 338° Northwest 430 495 31,100 1,260 Climbing San Juan Center
03:16PM 19.7333 -65.7000 360° North 430 495 32,300 1,200 Climbing San Juan Center
03:17PM 19.8500 -65.7167 352° North 420 483 33,600 1,200 Climbing San Juan Center
03:18PM 19.9667 -65.7333 352° North 420 483 34,800 1,200 Climbing San Juan Center
03:19PM 20.0833 -65.7500 352° North 400 460 36,000 540 Climbing San Juan Center
03:20PM 20.1833 -65.7667 351° North 410 472 36,000  Level San Juan Center
03:21PM 20.3000 -65.7667 360° North 410 472 36,000  Level San Juan Center
03:22PM 20.4167 -65.7833 352° North 400 460 36,000  Level San Juan Center
03:23PM 20.5333 -65.8000 352° North 400 460 36,000  Level San Juan Center
03:24PM 20.6333 -65.8167 351° North 400 460 36,000  Level San Juan Center
03:25PM 20.7500 -65.8333 352° North 400 460 36,000  Level San Juan Center
03:26PM 20.8667 -65.8500 352° North 400 460 36,000  Level San Juan Center
03:27PM 20.9667 -65.8500 360° North 400 460 36,000  Level San Juan Center
03:28PM 21.0833 -65.8667 352° North 400 460 36,000  Level San Juan Center
03:29PM 21.2000 -65.8833 352° North 400 460 36,000  Level San Juan Center
03:30PM 21.3000 -65.9000 351° North 400 460 36,000  Level San Juan Center
03:31PM 21.4167 -65.9167 352° North 390 449 36,000  Level San Juan Center
03:32PM 21.5167 -65.9333 351° North 390 449 36,000  Level San Juan Center
03:33PM 21.6333 -65.9500 352° North 390 449 36,000  Level San Juan Center
03:34PM 21.7500 -65.9500 360° North 400 460 36,000  Level San Juan Center
03:36PM 21.8731 -65.9746 349° North  Level FlightAware Approximate
03:43PM 22.6543 -65.9515 North  Level FlightAware Approximate
03:44PM 22.7660 -65.9427 North  Level FlightAware Approximate
03:45PM 22.8778 -65.9339 North  Level FlightAware Approximate
03:46PM 22.9896 -65.9251 North  Level FlightAware Approximate
03:47PM 23.1014 -65.9163 North  Level FlightAware Approximate
03:48PM 23.2132 -65.9074 North  Level FlightAware Approximate
03:49PM 23.3249 -65.8986 North  Level FlightAware Approximate
03:50PM 23.4367 -65.8897 North  Level FlightAware Approximate
03:50PM 22.0333 -66.0500 North 415 478 36,000  Level New York Oceanic (ODAPS)
03:50PM 22.0333 -66.0500 North 415 478 36,000  Level New York Oceanic (ODAPS)
03:51PM 23.5485 -65.8811 North  Level FlightAware Approximate
03:52PM 23.6604 -65.8733 North  Level FlightAware Approximate
03:53PM 23.7722 -65.8655 North  Level FlightAware Approximate
03:54PM 23.8841 -65.8576 North  Level FlightAware Approximate
03:55PM 23.9959 -65.8497 North  Level FlightAware Approximate
03:56PM 24.2374 -65.8484 North 415 478 36,000  Level FlightAware Transoceanic
03:57PM 24.3534 -65.8376 North 415 478 36,000  Level FlightAware Transoceanic
03:58PM 24.4694 -65.8268 North 415 478 36,000  Level FlightAware Transoceanic
03:59PM 24.5854 -65.8160 North 415 478 36,000  Level FlightAware Transoceanic
04:00PM 24.7013 -65.8051 North 415 478 36,000  Level FlightAware Transoceanic
04:01PM 24.8173 -65.7942 North 415 478 36,000  Level FlightAware Transoceanic
04:02PM 24.9333 -65.7833 North 415 478 36,000  Level FlightAware Transoceanic
04:03PM 25.0483 -65.7743 North 415 478 36,000  Level FlightAware Transoceanic
04:04PM 25.1633 -65.7652 North 415 478 36,000  Level FlightAware Transoceanic
04:05PM 25.2782 -65.7561 North 415 478 36,000  Level FlightAware Transoceanic
04:06PM 25.3932 -65.7470 North 415 478 36,000  Level FlightAware Transoceanic
04:07PM 25.5082 -65.7379 North 415 478 36,000  Level FlightAware Transoceanic
04:08PM 25.6231 -65.7288 North 415 478 36,000  Level FlightAware Transoceanic
04:09PM 25.7381 -65.7196 North 415 478 36,000  Level FlightAware Transoceanic
04:10PM 25.8531 -65.7105 North 415 478 36,000  Level FlightAware Transoceanic
04:11PM 25.9680 -65.7013 North 415 478 36,000  Level FlightAware Transoceanic
04:12PM 26.0830 -65.6921 North 415 478 36,000  Level FlightAware Transoceanic
04:13PM 26.1980 -65.6828 North 415 478 36,000  Level FlightAware Transoceanic
04:14PM 26.3129 -65.6736 North 415 478 36,000  Level FlightAware Transoceanic
04:15PM 26.4279 -65.6643 North 415 478 36,000  Level FlightAware Transoceanic
04:16PM 26.5428 -65.6551 North 415 478 36,000  Level FlightAware Transoceanic
04:17PM 26.6578 -65.6458 North 415 478 36,000  Level FlightAware Transoceanic
04:18PM 26.7728 -65.6364 North 415 478 36,000  Level FlightAware Transoceanic
04:19PM 26.8877 -65.6271 North 415 478 36,000  Level FlightAware Transoceanic
04:20PM 27.0027 -65.6178 North 415 478 36,000  Level FlightAware Transoceanic
04:21PM 27.1176 -65.6084 North 415 478 36,000  Level FlightAware Transoceanic
04:22PM 27.2326 -65.5990 North 415 478 36,000  Level FlightAware Transoceanic
04:23PM 27.3475 -65.5896 North 415 478 36,000  Level FlightAware Transoceanic
04:24PM 27.4625 -65.5801 North 415 478 36,000  Level FlightAware Transoceanic
04:25PM 27.5775 -65.5707 North 415 478 36,000  Level FlightAware Transoceanic
04:26PM 27.6924 -65.5612 North 415 478 36,000  Level FlightAware Transoceanic
04:27PM 27.8074 -65.5517 North 415 478 36,000  Level FlightAware Transoceanic
04:28PM 27.9223 -65.5422 North 415 478 36,000  Level FlightAware Transoceanic
04:29PM 28.0373 -65.5327 North 415 478 36,000  Level FlightAware Transoceanic
04:30PM 28.1522 -65.5231 North 415 478 36,000  Level FlightAware Transoceanic
04:31PM 28.2672 -65.5136 North 415 478 36,000  Level FlightAware Transoceanic
04:32PM 28.3821 -65.5040 North 415 478 36,000  Level FlightAware Transoceanic
04:33PM 28.4971 -65.4943 North 415 478 36,000  Level FlightAware Transoceanic
04:34PM 28.6120 -65.4847 North 415 478 36,000  Level FlightAware Transoceanic
04:35PM 28.7270 -65.4751 North 415 478 36,000  Level FlightAware Transoceanic
04:36PM 28.8419 -65.4654 North 415 478 36,000  Level FlightAware Transoceanic
04:37PM 28.9569 -65.4557 North 415 478 36,000  Level FlightAware Transoceanic
04:38PM 29.0718 -65.4460 North 415 478 36,000  Level FlightAware Transoceanic
04:39PM 29.1868 -65.4362 North 415 478 36,000  Level FlightAware Transoceanic
04:40PM 29.3017 -65.4265 North 415 478 36,000  Level FlightAware Transoceanic
04:41PM 29.4135 -65.4169 North  Level FlightAware Approximate
04:42PM 29.5252 -65.4073 North  Level FlightAware Approximate
04:43PM 29.5213 -65.4309 350° North  Level FlightAware Approximate
04:43PM 29.4167 -65.4167 349° North 443 510 36,000  Level New York Oceanic (ODAPS)
04:44PM 29.6317 -65.4533 349° North  Level FlightAware Approximate
04:45PM 29.7418 -65.4774 349° North  Level FlightAware Approximate
04:46PM 29.8519 -65.5016 349° North  Level FlightAware Approximate
04:47PM 29.9620 -65.5258 349° North  Level FlightAware Approximate
04:48PM 30.0721 -65.5501 349° North  Level FlightAware Approximate
04:49PM 30.1821 -65.5744 349° North  Level FlightAware Approximate
04:50PM 30.3864 -65.6283 349° North 443 510 36,000  Level FlightAware Transoceanic
04:51PM 30.5076 -65.6551 349° North 443 510 36,000  Level FlightAware Transoceanic
04:52PM 30.6288 -65.6819 349° North 443 510 36,000  Level FlightAware Transoceanic
04:53PM 30.7500 -65.7088 349° North 443 510 36,000  Level FlightAware Transoceanic
04:54PM 30.8712 -65.7357 349° North 443 510 36,000  Level FlightAware Transoceanic
04:55PM 30.9923 -65.7628 349° North 443 510 36,000  Level FlightAware Transoceanic
04:56PM 31.1135 -65.7899 349° North 443 510 36,000  Level FlightAware Transoceanic
04:57PM 31.2347 -65.8170 349° North 443 510 36,000  Level FlightAware Transoceanic
04:58PM 31.3558 -65.8443 349° North 443 510 36,000  Level FlightAware Transoceanic
04:59PM 31.4770 -65.8716 349° North 443 510 36,000  Level FlightAware Transoceanic
05:00PM 31.5981 -65.8989 349° North 443 510 36,000  Level FlightAware Transoceanic
05:01PM 31.7193 -65.9264 349° North 443 510 36,000  Level FlightAware Transoceanic
05:02PM 31.8404 -65.9539 349° North 443 510 36,000  Level FlightAware Transoceanic
05:03PM 31.9615 -65.9815 349° North 443 510 36,000  Level FlightAware Transoceanic
05:04PM 32.0826 -66.0091 349° North 443 510 36,000  Level FlightAware Transoceanic
05:05PM 32.2038 -66.0368 349° North 443 510 36,000  Level FlightAware Transoceanic
05:06PM 32.3249 -66.0647 349° North 443 510 36,000  Level FlightAware Transoceanic
05:07PM 32.4460 -66.0925 349° North 443 510 36,000  Level FlightAware Transoceanic
05:08PM 32.5671 -66.1205 349° North 443 510 36,000  Level FlightAware Transoceanic
05:09PM 32.6882 -66.1485 349° North 443 510 36,000  Level FlightAware Transoceanic
05:10PM 32.8092 -66.1766 349° North 443 510 36,000  Level FlightAware Transoceanic
05:11PM 32.9303 -66.2048 349° North 443 510 36,000  Level FlightAware Transoceanic
05:12PM 33.0514 -66.2331 349° North 443 510 36,000  Level FlightAware Transoceanic
05:13PM 33.1725 -66.2614 349° North 443 510 36,000  Level FlightAware Transoceanic
05:14PM 33.2935 -66.2898 349° North 443 510 36,000  Level FlightAware Transoceanic
05:15PM 33.4146 -66.3183 349° North 443 510 36,000  Level FlightAware Transoceanic
05:16PM 33.5356 -66.3469 349° North 443 510 36,000  Level FlightAware Transoceanic
05:17PM 33.6567 -66.3756 349° North 443 510 36,000  Level FlightAware Transoceanic
05:18PM 33.7777 -66.4043 349° North 443 510 36,000  Level FlightAware Transoceanic
05:19PM 33.8987 -66.4331 349° North 443 510 36,000  Level FlightAware Transoceanic
05:20PM 34.0197 -66.4620 349° North 443 510 36,000  Level FlightAware Transoceanic
05:21PM 34.1407 -66.4910 349° North 443 510 36,000  Level FlightAware Transoceanic
05:22PM 34.2617 -66.5201 349° North 443 510 36,000  Level FlightAware Transoceanic
05:23PM 34.3827 -66.5492 349° North 443 510 36,000  Level FlightAware Transoceanic
05:24PM 34.5037 -66.5785 349° North 443 510 36,000  Level FlightAware Transoceanic
05:25PM 34.6247 -66.6078 349° North 443 510 36,000  Level FlightAware Transoceanic
05:26PM 34.7457 -66.6372 349° North 443 510 36,000  Level FlightAware Transoceanic
05:27PM 34.8667 -66.6667 350° North 443 510 36,000  Level FlightAware Transoceanic
05:28PM 34.9885 -66.6926 350° North 443 510 36,000  Level FlightAware Transoceanic
05:29PM 35.1103 -66.7186 350° North 443 510 36,000  Level FlightAware Transoceanic
05:30PM 35.2321 -66.7447 350° North 443 510 36,000  Level FlightAware Transoceanic
05:31PM 35.3539 -66.7709 350° North 443 510 36,000  Level FlightAware Transoceanic
05:32PM 35.4757 -66.7971 350° North 443 510 36,000  Level FlightAware Transoceanic
05:33PM 35.5975 -66.8234 350° North 443 510 36,000 -1,080 Level FlightAware Transoceanic
05:33PM 34.8667 -66.6667 350° North 430 495 34,000  Descending New York Oceanic (ODAPS)
05:34PM 35.7192 -66.8499 350° North 443 510 36,000 1,860 Climbing FlightAware Transoceanic
05:35PM 35.8410 -66.8763 350° North 443 510 36,000  Level FlightAware Transoceanic
05:36PM 35.9628 -66.9029 350° North 443 510 36,000  Level FlightAware Transoceanic
05:37PM 36.0845 -66.9296 350° North 443 510 36,000  Level FlightAware Transoceanic
05:38PM 36.2063 -66.9563 350° North 443 510 36,000  Level FlightAware Transoceanic
05:39PM 36.3280 -66.9831 350° North 443 510 36,000 -1,020 Level FlightAware Transoceanic
05:40PM 36.4032 -66.9997 350° North 430 495 34,000 -1,020 Descending FlightAware Transoceanic
05:41PM 36.5214 -67.0259 350° North 430 495 34,000  Level FlightAware Transoceanic
05:42PM 36.6396 -67.0521 350° North 430 495 34,000  Level FlightAware Transoceanic
05:43PM 36.7577 -67.0784 350° North 430 495 34,000  Level FlightAware Transoceanic
05:44PM 36.8759 -67.1048 350° North 430 495 34,000  Level FlightAware Transoceanic
05:45PM 36.9940 -67.1313 350° North 430 495 34,000  Level FlightAware Transoceanic
05:46PM 37.1121 -67.1579 350° North 430 495 34,000  Level FlightAware Transoceanic
05:47PM 37.2302 -67.1845 350° North 430 495 34,000  Level FlightAware Transoceanic
05:48PM 37.3484 -67.2113 350° North 430 495 34,000  Level FlightAware Transoceanic
05:49PM 37.4665 -67.2381 350° North 430 495 34,000  Level FlightAware Transoceanic
05:50PM 37.5846 -67.2650 350° North 430 495 34,000  Level FlightAware Transoceanic
05:51PM 37.7027 -67.2920 350° North 430 495 34,000  Level FlightAware Transoceanic
05:52PM 37.8208 -67.3190 350° North 430 495 34,000  Level FlightAware Transoceanic
05:53PM 37.9389 -67.3462 350° North 430 495 34,000  Level FlightAware Transoceanic
05:54PM 38.0569 -67.3734 350° North 430 495 34,000  Level FlightAware Transoceanic
05:55PM 38.1750 -67.4008 350° North 430 495 34,000  Level FlightAware Transoceanic
05:56PM 38.2931 -67.4282 350° North 430 495 34,000  Level FlightAware Transoceanic
05:57PM 38.4112 -67.4557 350° North 430 495 34,000  Level FlightAware Transoceanic
05:58PM 38.5292 -67.4833 350° North 430 495 34,000  Level FlightAware Transoceanic
05:59PM 38.6473 -67.5110 350° North 430 495 34,000  Level FlightAware Transoceanic
05:59PM 38.7433 -67.5064 354° North 454 522 34,000  Level New York Center
06:00PM 38.7653 -67.5388 350° North 430 495 34,000  Level FlightAware Transoceanic
06:00PM 38.8736 -67.5458 347° North 469 540 34,000  Level New York Center
06:01PM 38.8833 -67.5667 354° North 430 495 34,000  Level FlightAware Transoceanic
06:01PM 38.9819 -67.6239 331° Northwest 457 526 34,000  Level New York Center
06:02PM 39.0111 -67.5846 354° North 430 495 34,000  Level FlightAware Transoceanic
06:02PM 39.0922 -67.6994 332° Northwest 445 512 34,000  Level New York Center
06:03PM 39.1389 -67.6026 354° North 430 495 34,000 -120 Level FlightAware Transoceanic
06:03PM 39.2006 -67.7753 332° Northwest 440 506 33,900  Descending New York Center
06:04PM 39.2667 -67.6207 354° North 430 495 34,000 60 Climbing FlightAware Transoceanic
06:04PM 39.3067 -67.8489 332° Northwest 440 506 34,000  Level New York Center
06:05PM 39.4147 -67.9250 331° Northwest 445 512 34,000  Level New York Center
06:06PM 39.5228 -67.9961 333° Northwest 445 512 34,000  Level New York Center
06:07PM 39.6328 -68.0700 333° Northwest 445 512 34,000  Level New York Center
06:08PM 39.7389 -68.1472 331° Northwest 440 506 34,000  Level New York Center
06:09PM 39.8486 -68.2217 332° Northwest 440 506 34,000  Level New York Center
06:11PM 40.0528 -68.3656 332° Northwest 441 507 34,000  Level Boston Center
06:12PM 40.1597 -68.4431 331° Northwest 441 507 34,000 -180 Level Boston Center
06:13PM 40.2686 -68.5181 332° Northwest 441 507 33,700 -660 Descending Boston Center
06:14PM 40.3756 -68.5933 332° Northwest 441 507 32,800 -960 Descending Boston Center
06:15PM 40.4825 -68.6719 331° Northwest 441 507 31,800 -1,020 Descending Boston Center
06:16PM 40.5911 -68.7475 332° Northwest 441 507 30,800 -900 Descending Boston Center
06:17PM 40.6767 -68.8111 331° Northwest 441 507 30,100 -1,020 Descending Boston Center
06:18PM 40.8025 -68.9000 332° Northwest 436 502 28,900 -1,080 Descending Boston Center
06:19PM 40.9069 -68.9714 333° Northwest 430 495 28,000 -480 Descending Boston Center
06:20PM 41.0092 -69.0483 330° Northwest 430 495 28,000 -240 Level Boston Center
06:21PM 41.1114 -69.1200 332° Northwest 425 489 27,600 -480 Descending Boston Center
06:22PM 41.2136 -69.1950 331° Northwest 425 489 27,100 -480 Descending Boston Center
06:23PM 41.3136 -69.2644 332° Northwest 415 478 26,700 -480 Descending Boston Center
06:24PM 41.4094 -69.3372 330° Northwest 409 471 26,200 -360 Descending Boston Center
06:25PM 41.4861 -69.3917 332° Northwest 404 465 26,000 -120 Descending Boston Center
06:26PM 41.5903 -69.4672 332° Northwest 399 459 26,000  Level Boston Center
06:27PM 41.6878 -69.5378 332° Northwest 399 459 26,000  Level Boston Center
06:28PM 41.7814 -69.6086 331° Northwest 394 453 26,000  Level Boston Center
06:29PM 41.8833 -69.6850 331° Northwest 405 466 26,000  Level Boston Center
06:30PM 41.9747 -69.7564 330° Northwest 400 460 26,000  Level Boston Center
06:31PM 42.0892 -69.8383 332° Northwest 414 476 26,000  Level Boston Center
06:32PM 42.1867 -69.9125 331° Northwest 409 471 26,000  Level Boston Center
06:33PM 42.2822 -69.9875 330° Northwest 409 471 26,000 -360 Level Boston Center
06:34PM 42.3711 -70.0542 331° Northwest 409 471 25,300 -1,140 Descending Boston Center
06:35PM 42.4622 -70.1267 330° Northwest 404 465 23,600 -1,800 Descending Boston Center
06:36PM 42.5600 -70.2244 324° Northwest 393 452 21,500 -1,980 Descending Boston Center
06:37PM 42.5769 -70.3481 281° West 335 386 19,700 -1,800 Descending Boston Center
06:38PM 42.5769 -70.4636 270° West 308 354 17,900 -1,800 Descending Boston Center
06:39PM 42.5603 -70.5769 259° West 303 349 16,200 -1,500 Descending Boston Center
06:40PM 42.5431 -70.6844 258° West 303 349 15,000 -960 Descending Boston Center
06:41PM 42.5278 -70.7750 257° West 278 320 14,300 -900 Descending Boston Center
06:42PM 42.5144 -70.8628 258° West 236 272 13,300 -1,200 Descending Boston Center
06:43PM 42.4839 -70.9086 228° Southwest 180 207 11,700 -1,740 Descending Boston Center
06:44PM 42.4500 -70.8833 151° Southeast 242 278 10,700 -1,980 Descending KA90
06:45PM 42.3833 -70.8833 180° South 212 244 9,200 -1,500 Descending KA90
06:46PM 42.3167 -70.9167 200° South 212 244 7,700 -1,620 Descending KA90
06:47PM 42.2667 -70.9333 194° South 209 241 6,000 -1,680 Descending KA90
06:48PM 42.2167 -70.9500 194° South 209 241 4,400 -1,260 Descending KA90
06:49PM 42.1667 -70.9833 206° Southwest 183 211 3,500 -660 Descending KA90
06:50PM 42.1667 -71.0667 270° West 214 246 3,100 -300 Descending KA90
06:51PM 42.2167 -71.0833 346° North 184 212 3,000 -480 Descending KA90
06:52PM 42.2500 -71.0667 20° North 181 208 2,200 -780 Descending KA90
06:53PM 42.2833 -71.0333 36° Northeast 127 146 1,500 -660 Descending KA90
06:54PM 42.3167 -71.0167 20° North 118 136 900 -600 Descending KA90
06:56PM 42.3500 -71.0000 304° West  Level FlightAware Approximate
07:03PM 42.3630 -71.0064 304° West  Level Estimated